• Join FlightAware (Why Join?)
  • Login
  • US Flag 
12:34PM EDT


 

Airport Tracker/Info


-or-


 

Live Flight TrackerFlight Track Log ✈ UAL4115 ✈ 11-Jun-2013 ✈ KIAD - KHSV

Flight Track Log - Related Links

Times and Time Zones

All times are in EDT time to prevent confusion due to time zone crossing. See the UAL4115 flight status page for this flight to view local times or setup timezone preferences in your user account.

Time Position Orientation Groundspeed Altitude Reporting Facility
EDT Latitude Longitude Course Direction KTS MPH feet Rate Location/Type
09:11AM 38.9000 -77.5167 234° Southwest 236 272 3,300  Level Potomac TRACON
09:12AM 38.8333 -77.5000 169° South 271 312 6,400 3,000 Climbing Potomac TRACON
09:13AM 38.6460 -77.6349 197° South  Level FlightAware Approximate
09:13AM 38.7667 -77.5000 180° South 269 310 9,400  Level Potomac TRACON
09:14AM 38.5451 -77.6829 210° Southwest  Level FlightAware Approximate
09:14AM 38.7000 -77.5500 210° Southwest 284 327 11,500  Level Potomac TRACON
09:15AM 38.4722 -77.7750 230° Southwest  Level FlightAware Approximate
09:15AM 38.6039 -77.6453 218° Southwest 327 376 13,500  Level Washington Center
09:16AM 38.4080 -77.8861 234° Southwest  Level FlightAware Approximate
09:16AM 38.5236 -77.7172 215° Southwest 340 391 15,100  Level Washington Center
09:17AM 38.4678 -77.7981 229° Southwest 345 397 16,200 1,260 Climbing Washington Center
09:18AM 38.4117 -77.9075 237° Southwest 352 405 17,700 1,440 Climbing Washington Center
09:19AM 38.3553 -78.0197 237° Southwest 371 427 19,100 1,380 Climbing Washington Center
09:20AM 38.2944 -78.1342 236° Southwest 381 438 20,500 1,380 Climbing Washington Center
09:21AM 38.2356 -78.2458 236° Southwest 386 444 22,000 1,380 Climbing Washington Center
09:22AM 38.1747 -78.3625 236° Southwest 391 450 23,400 1,380 Climbing Washington Center
09:23AM 38.1156 -78.4817 238° Southwest 396 456 24,800 1,560 Climbing Washington Center
09:24AM 38.0725 -78.6197 248° West 390 449 26,500 1,500 Climbing Washington Center
09:25AM 38.0297 -78.7447 247° West 395 455 27,900 1,320 Climbing Washington Center
09:26AM 37.9867 -78.8719 247° West 395 455 29,300 1,380 Climbing Washington Center
09:27AM 37.9414 -78.9964 245° Southwest 395 455 30,700 1,320 Climbing Washington Center
09:28AM 37.9028 -79.1106 247° West 395 455 32,000 600 Climbing Washington Center
09:29AM 37.8406 -79.2364 238° Southwest 401 461 32,000  Level Washington Center
09:30AM 37.7761 -79.3672 238° Southwest 422 486 32,000  Level Washington Center
09:31AM 37.7006 -79.5106 236° Southwest 442 509 32,000  Level Washington Center
09:32AM 37.6425 -79.6228 237° Southwest 447 514 32,000  Level Washington Center
09:33AM 37.5753 -79.7583 238° Southwest 436 502 32,000  Level Washington Center
09:35AM 37.4672 -79.9733 238° Southwest 436 502 32,000  Level Atlanta Center
09:36AM 37.4103 -80.0833 237° Southwest 430 495 32,000  Level Atlanta Center
09:37AM 37.3494 -80.2039 238° Southwest 425 489 32,000  Level Atlanta Center
09:38AM 37.2886 -80.3242 238° Southwest 425 489 32,000  Level Atlanta Center
09:39AM 37.2217 -80.4525 237° Southwest 420 483 32,000  Level Atlanta Center
09:40AM 37.1583 -80.5753 237° Southwest 415 478 32,000  Level Atlanta Center
09:41AM 37.0950 -80.6925 236° Southwest 420 483 32,000  Level Atlanta Center
09:42AM 37.0503 -80.8114 245° Southwest 420 483 32,000  Level Atlanta Center
09:43AM 37.0033 -80.9408 246° West 420 483 32,000  Level Atlanta Center
09:44AM 36.9547 -81.0750 246° West 420 483 32,000  Level Atlanta Center
09:45AM 36.9078 -81.2092 246° West 426 490 32,000  Level Atlanta Center
09:46AM 36.8528 -81.3592 245° Southwest 426 490 32,000  Level Atlanta Center
09:47AM 36.8156 -81.4667 247° West 426 490 32,000 -1,020 Level Atlanta Center
09:48AM 36.7625 -81.6289 248° West 426 490 30,000 -1,020 Descending Atlanta Center
09:49AM 36.7086 -81.7628 243° Southwest 426 490 30,000  Level Atlanta Center
09:50AM 36.6589 -81.8986 246° West 426 490 30,000  Level Atlanta Center
09:51AM 36.6111 -82.0344 246° West 426 490 30,000  Level Atlanta Center
09:52AM 36.5592 -82.1753 245° Southwest 434 499 30,000  Level Atlanta Center
09:53AM 36.5050 -82.3161 244° Southwest 448 516 30,000  Level Atlanta Center
09:54AM 36.4506 -82.4617 245° Southwest 448 516 30,000  Level Atlanta Center
09:55AM 36.3981 -82.6019 245° Southwest 459 528 30,000  Level Atlanta Center
09:56AM 36.3436 -82.7500 245° Southwest 459 528 30,000  Level Atlanta Center
09:57AM 36.2947 -82.8769 244° Southwest 459 528 30,000  Level Atlanta Center
09:58AM 36.2397 -83.0194 244° Southwest 459 528 30,000  Level Atlanta Center
09:59AM 36.1844 -83.1614 244° Southwest 465 535 30,000  Level Atlanta Center
10:00AM 36.1311 -83.3061 246° West 465 535 30,000  Level Atlanta Center
10:01AM 36.0756 -83.4478 244° Southwest 465 535 30,000  Level Atlanta Center
10:02AM 36.0242 -83.5894 246° West 465 535 30,000  Level Atlanta Center
10:03AM 35.9681 -83.7308 244° Southwest 465 535 30,000 -60 Level Atlanta Center
10:04AM 35.9122 -83.8722 244° Southwest 465 535 29,900 -780 Descending Atlanta Center
10:05AM 35.8600 -84.0106 245° Southwest 460 529 28,500 -1,500 Descending Atlanta Center
10:06AM 35.8039 -84.1489 243° Southwest 460 529 26,900 -1,560 Descending Atlanta Center
10:07AM 35.7472 -84.2947 244° Southwest 460 529 25,400 -1,560 Descending Atlanta Center
10:08AM 35.6925 -84.4350 244° Southwest 460 529 23,800 -1,560 Descending Atlanta Center
10:09AM 35.6378 -84.5728 244° Southwest 460 529 22,300 -1,380 Descending Atlanta Center
10:10AM 35.5808 -84.7181 244° Southwest 449 517 21,100 -1,200 Descending Atlanta Center
10:11AM 35.5278 -84.8503 244° Southwest 443 510 20,000 -1,140 Descending Atlanta Center
10:12AM 35.4747 -84.9822 244° Southwest 438 504 18,900 -1,020 Descending Atlanta Center
10:14AM 35.3464 -85.3017 244° Southwest 402 463 16,400 -840 Descending Memphis Center
10:15AM 35.2950 -85.4244 243° Southwest 402 463 16,000 -240 Descending Memphis Center
10:16AM 35.2478 -85.5442 244° Southwest 402 463 16,000  Level Memphis Center
10:17AM 35.1961 -85.6667 243° Southwest 402 463 16,000 -420 Level Memphis Center
10:18AM 35.1483 -85.7836 243° Southwest 397 457 15,200 -2,520 Descending Memphis Center
10:19AM 35.1006 -85.9053 244° Southwest 397 457 11,000 -1,740 Descending Memphis Center
10:20AM 35.0544 -86.0194 244° Southwest 397 457 11,800  Climbing Memphis Center
10:21AM 35.0044 -86.1361 242° Southwest 397 457 11,000 -420 Descending Memphis Center
10:22AM 34.9658 -86.2317 244° Southwest 391 450 11,000 -60 Level Memphis Center
10:23AM 34.9194 -86.3431 243° Southwest 391 450 10,900 -720 Descending Memphis Center
10:24AM 34.8792 -86.4589 247° West 345 397 9,600 -1,200 Descending Memphis Center
10:25AM 34.8608 -86.5356 254° West 318 366 8,500 -1,320 Descending Memphis Center
10:26AM 34.8386 -86.6328 254° West 270 311 7,000 -1,380 Descending Memphis Center
10:27AM 34.8139 -86.7072 248° West 253 291 5,800 -1,800 Descending Memphis Center
10:28AM 34.7733 -86.7544 224° Southwest 212 244 3,500 -2,340 Descending Memphis Center